• Join FlightAware (Why Join?)
  • Login
  • US Flag 
06:27AM EDT


 

Airport Tracker/Info


-or-


 

Live Flight TrackerFlight Track Log ✈ JBU917 ✈ 13-May-2013 ✈ KJFK - KORD

Flight Track Log - Related Links

Times and Time Zones

All times are in EDT time to prevent confusion due to time zone crossing. See the JBU917 flight status page for this flight to view local times or setup timezone preferences in your user account.

Time Position Orientation Groundspeed Altitude Reporting Facility
EDT Latitude Longitude Course Direction KTS MPH feet Rate Location/Type
08:43PM 40.6000 -73.8000 323° Northwest 173 199 1,800  Level New York TRACON
08:44PM 40.5500 -73.8000 180° South 232 267 3,200 2,040 Climbing New York TRACON
08:45PM 40.5500 -73.7167 90° East 265 305 5,900 2,760 Climbing New York TRACON
08:46PM 40.8561 -74.1954 304° West  Level FlightAware Approximate
08:46PM 40.6000 -73.6333 52° Northeast 269 310 9,000  Level New York TRACON
08:47PM 40.9147 -74.3045 306° West  Level FlightAware Approximate
08:47PM 40.6500 -73.5667 45° Northeast 277 319 11,400  Level New York TRACON
08:48PM 40.9765 -74.4098 323° Northwest  Level FlightAware Approximate
08:48PM 40.7333 -73.5667 360° North 310 357 12,700  Level New York TRACON
08:49PM 40.8333 -73.6000 346° North 334 384 14,900 2,040 Climbing New York TRACON
08:50PM 40.9167 -73.6667 329° Northwest 341 392 16,900 1,020 Climbing New York TRACON
08:51PM 40.9833 -73.7333 323° Northwest 348 400 17,000  Climbing New York TRACON
08:52PM 41.0167 -73.8667 288° West 334 384 17,000  Level New York TRACON
08:53PM 41.0333 -73.9667 282° West 336 387 17,000  Level New York TRACON
08:54PM 41.0500 -74.1000 279° West 339 390 17,000  Level New York TRACON
08:56PM 41.0922 -74.3639 282° West 351 404 17,000  Level New York Center
08:57PM 41.1078 -74.4747 281° West 345 397 17,000  Level New York Center
08:58PM 41.1264 -74.6053 281° West 330 380 17,000  Level New York Center
08:59PM 41.1439 -74.7108 282° West 330 380 17,000 480 Level New York Center
09:00PM 41.1961 -74.8297 300° West 330 380 18,000 1,320 Climbing New York Center
09:01PM 41.2383 -74.9289 300° West 335 386 19,700 1,740 Climbing New York Center
09:02PM 41.2864 -75.0422 299° West 343 395 21,600 1,680 Climbing New York Center
09:03PM 41.3364 -75.1589 300° West 353 406 23,200 1,560 Climbing New York Center
09:04PM 41.3881 -75.2783 300° West 365 420 24,700 1,380 Climbing New York Center
09:05PM 41.4394 -75.4036 299° West 377 434 26,000 1,200 Climbing New York Center
09:06PM 41.4939 -75.5514 296° West 397 457 27,200 960 Climbing New York Center
09:07PM 41.5342 -75.6872 292° West 407 468 28,000 360 Climbing New York Center
09:08PM 41.5742 -75.8261 291° West 402 463 28,000  Level New York Center
09:09PM 41.6158 -75.9678 292° West 402 463 28,000  Level New York Center
09:10PM 41.6556 -76.1097 291° West 402 463 28,000  Level New York Center
09:11PM 41.6944 -76.2575 289° West 413 475 28,000  Level New York Center
09:12PM 41.7358 -76.3969 292° West 413 475 28,000  Level New York Center
09:13PM 41.7692 -76.5278 289° West 413 475 28,000  Level New York Center
09:16PM 41.8644 -76.8633 291° West 403 464 28,000  Level Cleveland Center
09:17PM 41.9022 -77.0036 290° West 403 464 28,000  Level Cleveland Center
09:18PM 41.9419 -77.1464 291° West 403 464 28,000  Level Cleveland Center
09:19PM 41.9794 -77.2869 290° West 403 464 28,000  Level Cleveland Center
09:20PM 42.0167 -77.4247 290° West 403 464 28,000  Level Cleveland Center
09:21PM 42.0539 -77.5656 290° West 403 464 28,000  Level Cleveland Center
09:22PM 42.0908 -77.7067 289° West 403 464 28,000  Level Cleveland Center
09:23PM 42.1275 -77.8450 290° West 403 464 28,000  Level Cleveland Center
09:24PM 42.1594 -77.9669 289° West 403 464 28,000  Level Cleveland Center
09:25PM 42.1961 -78.1056 290° West 403 464 28,000  Level Cleveland Center
09:26PM 42.2300 -78.2361 289° West 391 450 28,000  Level Cleveland Center
09:27PM 42.2639 -78.3639 290° West 380 437 28,000 780 Level Cleveland Center
09:28PM 42.2953 -78.4947 288° West 375 432 29,600 960 Climbing Cleveland Center
09:29PM 42.3289 -78.6283 289° West 370 426 30,000 180 Climbing Cleveland Center
09:30PM 42.3625 -78.7622 289° West 370 426 30,000  Level Cleveland Center
09:31PM 42.3978 -78.8933 290° West 370 426 30,000  Level Cleveland Center
09:32PM 42.4289 -79.0275 287° West 375 432 30,000  Level Cleveland Center
09:33PM 42.4639 -79.1619 289° West 381 438 30,000  Level Cleveland Center
09:34PM 42.4928 -79.3019 286° West 381 438 30,000  Level Cleveland Center
09:35PM 42.5006 -79.4539 274° West 395 455 30,000  Level Cleveland Center
09:36PM 42.5083 -79.6058 274° West 406 467 30,000  Level Cleveland Center
09:37PM 42.5178 -79.7606 275° West 406 467 30,000  Level Cleveland Center
09:38PM 42.5250 -79.9100 274° West 406 467 30,000  Level Cleveland Center
09:39PM 42.5258 -80.0619 270° West 406 467 30,000  Level Cleveland Center
09:40PM 42.5347 -80.2169 275° West 407 468 30,000  Level Cleveland Center
09:41PM 42.5392 -80.3803 272° West 402 463 30,000  Level Cleveland Center
09:42PM 42.5456 -80.5325 273° West 402 463 30,000  Level Cleveland Center
09:43PM 42.5539 -80.6817 274° West 402 463 30,000  Level Cleveland Center
09:44PM 42.5600 -80.8342 273° West 407 468 30,000  Level Cleveland Center
09:45PM 42.5636 -80.9836 272° West 400 460 30,000  Level Cleveland Center
09:46PM 42.5694 -81.1386 273° West 405 466 30,000  Level Cleveland Center
09:47PM 42.5747 -81.2881 273° West 405 466 30,000  Level Cleveland Center
09:48PM 42.5819 -81.4403 274° West 410 472 30,000  Level Cleveland Center
09:49PM 42.6058 -81.5789 283° West 389 448 30,000  Level Cleveland Center
09:50PM 42.6317 -81.7261 283° West 389 448 30,000  Level Cleveland Center
09:51PM 42.6531 -81.8706 281° West 389 448 30,000  Level Cleveland Center
09:52PM 42.6806 -82.0178 284° West 396 456 30,000  Level Cleveland Center
09:53PM 42.7058 -82.1597 284° West 396 456 30,000  Level Cleveland Center
09:54PM 42.7286 -82.3072 282° West 396 456 30,000  Level Cleveland Center
09:55PM 42.7431 -82.4603 277° West 396 456 30,000  Level Cleveland Center
09:56PM 42.7508 -82.6133 274° West 407 468 30,000  Level Cleveland Center
09:57PM 42.7583 -82.7719 274° West 412 474 30,000  Level Cleveland Center
09:58PM 42.7678 -82.9250 275° West 412 474 30,000  Level Cleveland Center
09:59PM 42.7750 -83.0808 274° West 412 474 30,000  Level Cleveland Center
10:00PM 42.7819 -83.2367 274° West 417 480 30,000  Level Cleveland Center
10:01PM 42.7869 -83.3783 273° West 417 480 30,000  Level Cleveland Center
10:02PM 42.7933 -83.5314 273° West 417 480 30,000  Level Cleveland Center
10:03PM 42.8017 -83.6933 274° West 422 486 30,000  Level Cleveland Center
10:04PM 42.8078 -83.8464 273° West 422 486 30,000  Level Cleveland Center
10:05PM 42.8158 -84.0025 274° West 422 486 30,000  Level Cleveland Center
10:06PM 42.8214 -84.1614 273° West 422 486 30,000  Level Cleveland Center
10:07PM 42.8319 -84.4200 273° West 417 480 30,000  Level Chicago Center
10:08PM 42.8378 -84.5772 273° West 417 480 30,000  Level Chicago Center
10:09PM 42.8439 -84.7353 273° West 418 481 30,000  Level Chicago Center
10:10PM 42.8478 -84.8925 272° West 416 479 30,000  Level Chicago Center
10:11PM 42.8308 -85.0861 263° West 433 498 30,000  Level Chicago Center
10:12PM 42.8133 -85.2494 262° West 434 499 30,000 -540 Level Chicago Center
10:13PM 42.7958 -85.4119 262° West 435 501 28,900 -1,680 Descending Chicago Center
10:14PM 42.7728 -85.5728 259° West 432 497 26,600 -2,220 Descending Chicago Center
10:16PM 42.7458 -85.7250 256° West 416 479 24,400 -2,100 Descending Chicago Center
10:17PM 42.7186 -85.8736 256° West 404 465 22,300 -2,100 Descending Chicago Center
10:18PM 42.6925 -86.0158 256° West 389 448 20,200 -1,140 Descending Chicago Center
10:19PM 42.6675 -86.1544 256° West 379 436 20,000 -120 Descending Chicago Center
10:20PM 42.6417 -86.2939 256° West 378 435 20,000 -360 Level Chicago Center
10:21PM 42.6150 -86.4311 255° West 377 434 19,300 -1,260 Descending Chicago Center
10:22PM 42.5894 -86.5686 256° West 375 432 17,500 -1,800 Descending Chicago Center
10:23PM 42.5658 -86.6972 256° West 357 411 15,700 -1,920 Descending Chicago Center
10:24PM 42.5281 -86.8489 251° West 354 407 13,600 -1,860 Descending Chicago Center
10:25PM 42.4947 -86.9711 250° West 349 402 11,900 -1,740 Descending Chicago Center
10:26PM 42.4600 -87.0894 248° West 339 390 10,100 -960 Descending Chicago Center
10:27PM 42.4283 -87.2078 250° West 337 388 10,000 -60 Descending Chicago Center
10:28PM 42.3961 -87.3256 250° West 336 387 10,000  Level Chicago Center
10:29PM 42.3600 -87.4542 249° West 331 381 10,000  Level Chicago Center
10:30PM 42.3142 -87.5603 240° Southwest 338 389 10,000  Level Chicago Center
10:31PM 42.2383 -87.6408 218° Southwest 348 400 10,000 -180 Level Chicago Center
10:32PM 42.1694 -87.7125 218° Southwest 320 368 9,700 -900 Descending Chicago Center
10:33PM 42.1078 -87.7783 218° Southwest 289 333 8,200 -1,140 Descending Chicago Center
10:33PM 42.1000 -87.8167 255° West 261 300 8,100 -540 Descending Chicago TRACON
10:34PM 42.1000 -87.9000 270° West 220 253 7,500 -600 Descending Chicago TRACON
10:35PM 42.0833 -87.9667 251° West 179 206 7,000 -300 Descending Chicago TRACON
10:36PM 42.1000 -88.0333 289° West 178 205 7,000 -600 Level Chicago TRACON
10:37PM 42.1000 -88.1000 270° West 172 198 5,900 -1,080 Descending Chicago TRACON
10:38PM 42.0906 -88.1503 256° West 175 201 5,000 -1,080 Descending Chicago Center
10:39PM 42.0672 -88.1919 233° Southwest 185 213 4,000 -540 Descending Chicago Center
10:40PM 42.0186 -88.1767 167° South 179 206 4,000 -540 Level Chicago Center
10:41PM 41.9833 -88.0833 117° Southeast 188 216 2,800 -840 Descending Chicago TRACON
10:42PM 41.9667 -88.0333 114° Southeast 158 182 2,200 -720 Descending Chicago TRACON
10:43PM 41.9667 -87.9833 90° East 138 159 1,500 -780 Descending Chicago TRACON
10:44PM 41.9667 -87.9333 90° East 128 147 800 -720 Descending Chicago TRACON